DAL8990 KSEA-KMFR
Flight info
| Callsign | DAL8990 |
|---|---|
| Flight time | 1h 1m |
| Altitude | 37000 |
| Route | HAROB6 FEPOT SAMIE |
| Aircraft | A320/M-FAA/L |
Departure
| Time | 2026-04-21 20:29 |
|---|---|
| Airport | Seattle–Tacoma International Airport (KSEA) |
Arrival
| Time | 2026-04-21 21:31 |
|---|---|
| Airport | Rogue Valley International-Medford Airport (KMFR) |
| Time | Latitude | Longitude | Altitude | Speed | Heading |
|---|---|---|---|---|---|
| 2026-04-21 20:16 | 47.44850 | -122.30403 | 394 ft | 0 kts | 43° |
| 2026-04-21 20:21 | 47.44835 | -122.30427 | 394 ft | 4 kts | 51° |
| 2026-04-21 20:21 | 47.44819 | -122.30459 | 394 ft | 4 kts | 60° |
| 2026-04-21 20:22 | 47.44807 | -122.30495 | 394 ft | 4 kts | 68° |
| 2026-04-21 20:22 | 47.44791 | -122.30571 | 394 ft | 4 kts | 77° |
| 2026-04-21 20:22 | 47.44785 | -122.30609 | 394 ft | 4 kts | 66° |
| 2026-04-21 20:23 | 47.44774 | -122.30632 | 394 ft | 2 kts | 2° |
| 2026-04-21 20:23 | 47.44773 | -122.30633 | 394 ft | 0 kts | 0° |
| 2026-04-21 20:25 | 47.44776 | -122.30632 | 394 ft | 4 kts | 0° |
| 2026-04-21 20:25 | 47.44863 | -122.30632 | 394 ft | 15 kts | 0° |
| 2026-04-21 20:25 | 47.44963 | -122.30628 | 394 ft | 14 kts | 1° |
| 2026-04-21 20:26 | 47.45056 | -122.30626 | 390 ft | 13 kts | 1° |
| 2026-04-21 20:26 | 47.45139 | -122.30624 | 392 ft | 11 kts | 1° |
| 2026-04-21 20:26 | 47.45246 | -122.30622 | 393 ft | 24 kts | 0° |
| 2026-04-21 20:26 | 47.45438 | -122.30625 | 392 ft | 29 kts | 359° |
| 2026-04-21 20:27 | 47.45644 | -122.30624 | 392 ft | 30 kts | 1° |
| 2026-04-21 20:27 | 47.45861 | -122.30622 | 391 ft | 32 kts | 360° |
| 2026-04-21 20:27 | 47.46086 | -122.30626 | 390 ft | 33 kts | 1° |
| 2026-04-21 20:27 | 47.46273 | -122.30622 | 394 ft | 26 kts | 0° |
| 2026-04-21 20:28 | 47.46367 | -122.30652 | 394 ft | 11 kts | 303° |
| 2026-04-21 20:28 | 47.46368 | -122.30761 | 394 ft | 11 kts | 240° |
| 2026-04-21 20:28 | 47.46329 | -122.30780 | 389 ft | 0 kts | 181° |
| 2026-04-21 20:28 | 47.46255 | -122.30781 | 390 ft | 43 kts | 180° |
| 2026-04-21 20:29 | 47.45710 | -122.30786 | 393 ft | 111 kts | 178° |
| 2026-04-21 20:29 | 47.44749 | -122.30810 | 408 ft | 160 kts | 182° |
| 2026-04-21 20:29 | 47.43692 | -122.30844 | 911 ft | 167 kts | 182° |
| 2026-04-21 20:29 | 47.42533 | -122.30843 | 1751 ft | 165 kts | 181° |
| 2026-04-21 20:30 | 47.41371 | -122.30855 | 2467 ft | 173 kts | 184° |
| 2026-04-21 20:30 | 47.40116 | -122.30876 | 2896 ft | 195 kts | 184° |
| 2026-04-21 20:30 | 47.38669 | -122.30911 | 3322 ft | 220 kts | 183° |
| 2026-04-21 20:30 | 47.37060 | -122.30969 | 3830 ft | 245 kts | 183° |
| 2026-04-21 20:31 | 47.35296 | -122.31037 | 4627 ft | 258 kts | 184° |
| 2026-04-21 20:31 | 47.33493 | -122.31260 | 5559 ft | 263 kts | 198° |
| 2026-04-21 20:31 | 47.31952 | -122.32692 | 6405 ft | 269 kts | 231° |
| 2026-04-21 20:31 | 47.31112 | -122.35179 | 7205 ft | 278 kts | 252° |
| 2026-04-21 20:32 | 47.30741 | -122.38005 | 8058 ft | 284 kts | 260° |
| 2026-04-21 20:32 | 47.30551 | -122.40922 | 8928 ft | 288 kts | 263° |
| 2026-04-21 20:32 | 47.30448 | -122.43863 | 9753 ft | 296 kts | 270° |
| 2026-04-21 20:32 | 47.30699 | -122.46925 | 10336 ft | 310 kts | 274° |
| 2026-04-21 20:33 | 47.30905 | -122.50205 | 10614 ft | 332 kts | 271° |
| 2026-04-21 20:33 | 47.31029 | -122.53659 | 11144 ft | 343 kts | 269° |
| 2026-04-21 20:33 | 47.31115 | -122.57203 | 11835 ft | 349 kts | 268° |
| 2026-04-21 20:33 | 47.31187 | -122.60809 | 12629 ft | 355 kts | 267° |
| 2026-04-21 20:34 | 47.31261 | -122.64485 | 13405 ft | 361 kts | 267° |
| 2026-04-21 20:34 | 47.31346 | -122.68207 | 14120 ft | 367 kts | 267° |
| 2026-04-21 20:34 | 47.31441 | -122.71987 | 14812 ft | 370 kts | 267° |
| 2026-04-21 20:34 | 47.31383 | -122.75773 | 15457 ft | 369 kts | 258° |
| 2026-04-21 20:35 | 47.30883 | -122.79463 | 16123 ft | 366 kts | 247° |
| 2026-04-21 20:35 | 47.30002 | -122.82959 | 16802 ft | 366 kts | 242° |
| 2026-04-21 20:35 | 47.29056 | -122.86460 | 17444 ft | 370 kts | 242° |
| 2026-04-21 20:35 | 47.28101 | -122.89995 | 18119 ft | 373 kts | 242° |
| 2026-04-21 20:36 | 47.27139 | -122.93564 | 18715 ft | 377 kts | 242° |
| 2026-04-21 20:36 | 47.26181 | -122.97126 | 19254 ft | 381 kts | 243° |
| 2026-04-21 20:36 | 47.25109 | -123.00692 | 19814 ft | 380 kts | 236° |
| 2026-04-21 20:36 | 47.23667 | -123.03937 | 20353 ft | 377 kts | 226° |
| 2026-04-21 20:37 | 47.21869 | -123.06728 | 20893 ft | 375 kts | 216° |
| 2026-04-21 20:37 | 47.19806 | -123.09069 | 21433 ft | 376 kts | 211° |
| 2026-04-21 20:37 | 47.17695 | -123.11360 | 21970 ft | 380 kts | 211° |
| 2026-04-21 20:37 | 47.15556 | -123.13691 | 22494 ft | 384 kts | 211° |
| 2026-04-21 20:38 | 47.13395 | -123.16051 | 22974 ft | 390 kts | 212° |
| 2026-04-21 20:38 | 47.11171 | -123.18362 | 23470 ft | 391 kts | 206° |
| 2026-04-21 20:38 | 47.08750 | -123.20129 | 23943 ft | 388 kts | 196° |
| 2026-04-21 20:38 | 47.06177 | -123.21231 | 24440 ft | 384 kts | 187° |
| 2026-04-21 20:39 | 47.03572 | -123.21651 | 24922 ft | 380 kts | 178° |
| 2026-04-21 20:39 | 47.00899 | -123.21550 | 25424 ft | 379 kts | 175° |
| 2026-04-21 20:39 | 46.98271 | -123.21413 | 25993 ft | 377 kts | 175° |
| 2026-04-21 20:39 | 46.95686 | -123.21281 | 26511 ft | 376 kts | 175° |
| 2026-04-21 20:40 | 46.93072 | -123.21149 | 27017 ft | 376 kts | 176° |
| 2026-04-21 20:40 | 46.90458 | -123.21018 | 27510 ft | 376 kts | 176° |
| 2026-04-21 20:40 | 46.87844 | -123.20889 | 27981 ft | 376 kts | 176° |
| 2026-04-21 20:40 | 46.85221 | -123.20761 | 28473 ft | 377 kts | 176° |
| 2026-04-21 20:41 | 46.82603 | -123.20633 | 28933 ft | 377 kts | 176° |
| 2026-04-21 20:41 | 46.79979 | -123.20505 | 29359 ft | 377 kts | 176° |
| 2026-04-21 20:41 | 46.77354 | -123.20375 | 29780 ft | 378 kts | 177° |
| 2026-04-21 20:41 | 46.74732 | -123.20247 | 30200 ft | 376 kts | 176° |
| 2026-04-21 20:42 | 46.72115 | -123.20121 | 30557 ft | 376 kts | 176° |
| 2026-04-21 20:42 | 46.69500 | -123.19994 | 30851 ft | 377 kts | 176° |
| 2026-04-21 20:42 | 46.67764 | -123.19911 | 31037 ft | 377 kts | 176° |
| 2026-04-21 20:42 | 46.64281 | -123.19743 | 31389 ft | 379 kts | 176° |
| 2026-04-21 20:43 | 46.61638 | -123.19613 | 31684 ft | 379 kts | 176° |
| 2026-04-21 20:43 | 46.59007 | -123.19485 | 32065 ft | 378 kts | 176° |
| 2026-04-21 20:43 | 46.56382 | -123.19356 | 32450 ft | 376 kts | 175° |
| 2026-04-21 20:43 | 46.53772 | -123.19225 | 32839 ft | 375 kts | 175° |
| 2026-04-21 20:44 | 46.52012 | -123.19138 | 33114 ft | 373 kts | 175° |
| 2026-04-21 20:44 | 46.49460 | -123.19014 | 33560 ft | 370 kts | 175° |
| 2026-04-21 20:44 | 46.46892 | -123.18891 | 34006 ft | 368 kts | 175° |
| 2026-04-21 20:44 | 46.44332 | -123.18772 | 34236 ft | 370 kts | 175° |
| 2026-04-21 20:45 | 46.41741 | -123.18646 | 34415 ft | 373 kts | 175° |
| 2026-04-21 20:45 | 46.39144 | -123.18518 | 34622 ft | 374 kts | 175° |
| 2026-04-21 20:45 | 46.36533 | -123.18395 | 34832 ft | 376 kts | 175° |
| 2026-04-21 20:45 | 46.33917 | -123.18275 | 35033 ft | 377 kts | 175° |
| 2026-04-21 20:46 | 46.31290 | -123.18153 | 35240 ft | 379 kts | 175° |
| 2026-04-21 20:46 | 46.28650 | -123.18026 | 35439 ft | 380 kts | 175° |
| 2026-04-21 20:46 | 46.26006 | -123.17896 | 35655 ft | 380 kts | 175° |
| 2026-04-21 20:46 | 46.23357 | -123.17767 | 35866 ft | 381 kts | 176° |
| 2026-04-21 20:47 | 46.20703 | -123.17639 | 36064 ft | 382 kts | 176° |
| 2026-04-21 20:47 | 46.18037 | -123.17510 | 36255 ft | 384 kts | 176° |
| 2026-04-21 20:47 | 46.15364 | -123.17381 | 36445 ft | 385 kts | 176° |
| 2026-04-21 20:47 | 46.12683 | -123.17253 | 36631 ft | 386 kts | 176° |
| 2026-04-21 20:48 | 46.10025 | -123.17125 | 36810 ft | 387 kts | 176° |
| 2026-04-21 20:48 | 46.07326 | -123.16995 | 36932 ft | 388 kts | 176° |
| 2026-04-21 20:48 | 46.01936 | -123.16742 | 36954 ft | 387 kts | 176° |
| 2026-04-21 20:49 | 45.96555 | -123.16488 | 36954 ft | 387 kts | 176° |
| 2026-04-21 20:49 | 45.91178 | -123.16232 | 36947 ft | 387 kts | 176° |
| 2026-04-21 20:50 | 45.85791 | -123.15979 | 36948 ft | 387 kts | 176° |
| 2026-04-21 20:50 | 45.80445 | -123.15724 | 36941 ft | 386 kts | 176° |
| 2026-04-21 20:51 | 45.75078 | -123.15470 | 36949 ft | 386 kts | 176° |
| 2026-04-21 20:51 | 45.69708 | -123.15218 | 36961 ft | 387 kts | 176° |
| 2026-04-21 20:52 | 45.64312 | -123.14966 | 36937 ft | 388 kts | 176° |
| 2026-04-21 20:52 | 45.58907 | -123.14716 | 36922 ft | 389 kts | 176° |
| 2026-04-21 20:53 | 45.53498 | -123.14460 | 36927 ft | 389 kts | 176° |
| 2026-04-21 20:53 | 45.48080 | -123.14209 | 36930 ft | 389 kts | 176° |
| 2026-04-21 20:54 | 45.42699 | -123.13960 | 36941 ft | 389 kts | 176° |
| 2026-04-21 20:54 | 45.37287 | -123.13702 | 36945 ft | 389 kts | 176° |
| 2026-04-21 20:55 | 45.31870 | -123.13443 | 36966 ft | 390 kts | 176° |
| 2026-04-21 20:55 | 45.26430 | -123.13193 | 36946 ft | 391 kts | 176° |
| 2026-04-21 20:56 | 45.21377 | -123.12964 | 36942 ft | 392 kts | 176° |
| 2026-04-21 20:56 | 45.15863 | -123.12720 | 36941 ft | 393 kts | 176° |
| 2026-04-21 20:57 | 45.10432 | -123.12466 | 36940 ft | 393 kts | 176° |
| 2026-04-21 20:57 | 45.04965 | -123.12205 | 36946 ft | 393 kts | 176° |
| 2026-04-21 20:58 | 44.99505 | -123.11952 | 36953 ft | 393 kts | 176° |
| 2026-04-21 20:58 | 44.94035 | -123.11706 | 36957 ft | 394 kts | 176° |
| 2026-04-21 20:59 | 44.88539 | -123.11461 | 36930 ft | 395 kts | 176° |
| 2026-04-21 20:59 | 44.83038 | -123.11215 | 36944 ft | 396 kts | 176° |
| 2026-04-21 21:00 | 44.77536 | -123.10967 | 36949 ft | 396 kts | 176° |
| 2026-04-21 21:00 | 44.72035 | -123.10703 | 36951 ft | 396 kts | 176° |
| 2026-04-21 21:01 | 44.66533 | -123.10452 | 36967 ft | 396 kts | 176° |
| 2026-04-21 21:01 | 44.61030 | -123.10207 | 36996 ft | 395 kts | 176° |
| 2026-04-21 21:02 | 44.55558 | -123.09961 | 36838 ft | 400 kts | 176° |
| 2026-04-21 21:02 | 44.52765 | -123.09839 | 36428 ft | 399 kts | 176° |
| 2026-04-21 21:02 | 44.50004 | -123.09719 | 36036 ft | 396 kts | 176° |
| 2026-04-21 21:03 | 44.47252 | -123.09597 | 35644 ft | 394 kts | 176° |
| 2026-04-21 21:03 | 44.44527 | -123.09476 | 35251 ft | 389 kts | 176° |
| 2026-04-21 21:03 | 44.41835 | -123.09352 | 34876 ft | 386 kts | 176° |
| 2026-04-21 21:03 | 44.39169 | -123.09230 | 34502 ft | 380 kts | 175° |
| 2026-04-21 21:04 | 44.36542 | -123.09110 | 34141 ft | 374 kts | 175° |
| 2026-04-21 21:04 | 44.33964 | -123.08994 | 33742 ft | 369 kts | 175° |
| 2026-04-21 21:04 | 44.31416 | -123.08878 | 33309 ft | 364 kts | 175° |
| 2026-04-21 21:04 | 44.28901 | -123.08761 | 32879 ft | 359 kts | 175° |
| 2026-04-21 21:05 | 44.26414 | -123.08648 | 32503 ft | 355 kts | 175° |
| 2026-04-21 21:05 | 44.23980 | -123.08539 | 32088 ft | 354 kts | 175° |
| 2026-04-21 21:05 | 44.21529 | -123.08433 | 31688 ft | 351 kts | 175° |
| 2026-04-21 21:05 | 44.19104 | -123.08330 | 31280 ft | 347 kts | 175° |
| 2026-04-21 21:06 | 44.16707 | -123.08226 | 30882 ft | 342 kts | 175° |
| 2026-04-21 21:06 | 44.14347 | -123.08121 | 30493 ft | 337 kts | 175° |
| 2026-04-21 21:06 | 44.12018 | -123.08015 | 30106 ft | 333 kts | 175° |
| 2026-04-21 21:06 | 44.09718 | -123.07910 | 29655 ft | 328 kts | 175° |
| 2026-04-21 21:07 | 44.07448 | -123.07808 | 29205 ft | 325 kts | 175° |
| 2026-04-21 21:07 | 44.05199 | -123.07707 | 28751 ft | 322 kts | 175° |
| 2026-04-21 21:07 | 44.02972 | -123.07607 | 28311 ft | 319 kts | 175° |
| 2026-04-21 21:07 | 44.00758 | -123.07510 | 27859 ft | 317 kts | 175° |
| 2026-04-21 21:08 | 43.98557 | -123.07416 | 27427 ft | 315 kts | 175° |
| 2026-04-21 21:08 | 43.96374 | -123.07324 | 27003 ft | 313 kts | 175° |
| 2026-04-21 21:08 | 43.94206 | -123.07229 | 26587 ft | 311 kts | 175° |
| 2026-04-21 21:08 | 43.92051 | -123.07133 | 26175 ft | 309 kts | 175° |
| 2026-04-21 21:09 | 43.89941 | -123.07039 | 25827 ft | 305 kts | 175° |
| 2026-04-21 21:09 | 43.87836 | -123.06946 | 25428 ft | 301 kts | 175° |
| 2026-04-21 21:09 | 43.85752 | -123.06853 | 25031 ft | 297 kts | 175° |
| 2026-04-21 21:09 | 43.83696 | -123.06761 | 24642 ft | 294 kts | 175° |
| 2026-04-21 21:10 | 43.81652 | -123.06671 | 24251 ft | 291 kts | 175° |
| 2026-04-21 21:10 | 43.79639 | -123.06585 | 23877 ft | 288 kts | 175° |
| 2026-04-21 21:10 | 43.77650 | -123.06497 | 23488 ft | 285 kts | 175° |
| 2026-04-21 21:10 | 43.75673 | -123.06410 | 23038 ft | 284 kts | 175° |
| 2026-04-21 21:11 | 43.73696 | -123.06322 | 22600 ft | 285 kts | 175° |
| 2026-04-21 21:11 | 43.71704 | -123.06234 | 22154 ft | 287 kts | 176° |
| 2026-04-21 21:11 | 43.69704 | -123.06145 | 21718 ft | 289 kts | 176° |
| 2026-04-21 21:11 | 43.67691 | -123.06055 | 21290 ft | 291 kts | 176° |
| 2026-04-21 21:12 | 43.65659 | -123.05961 | 20867 ft | 293 kts | 176° |
| 2026-04-21 21:12 | 43.63640 | -123.05871 | 20460 ft | 295 kts | 176° |
| 2026-04-21 21:12 | 43.61579 | -123.05784 | 20051 ft | 297 kts | 177° |
| 2026-04-21 21:12 | 43.59503 | -123.05698 | 19637 ft | 298 kts | 178° |
| 2026-04-21 21:13 | 43.57432 | -123.05611 | 19239 ft | 298 kts | 178° |
| 2026-04-21 21:13 | 43.55343 | -123.05520 | 18862 ft | 304 kts | 178° |
| 2026-04-21 21:13 | 43.53213 | -123.05424 | 18472 ft | 308 kts | 178° |
| 2026-04-21 21:13 | 43.51065 | -123.05327 | 18060 ft | 309 kts | 178° |
| 2026-04-21 21:14 | 43.48908 | -123.05231 | 17623 ft | 309 kts | 178° |
| 2026-04-21 21:14 | 43.46755 | -123.05137 | 17182 ft | 308 kts | 178° |
| 2026-04-21 21:14 | 43.44610 | -123.05044 | 16749 ft | 308 kts | 178° |
| 2026-04-21 21:14 | 43.42501 | -123.04953 | 16332 ft | 307 kts | 178° |
| 2026-04-21 21:15 | 43.40368 | -123.04863 | 15908 ft | 306 kts | 178° |
| 2026-04-21 21:15 | 43.38247 | -123.04773 | 15488 ft | 304 kts | 178° |
| 2026-04-21 21:15 | 43.36136 | -123.04682 | 15093 ft | 303 kts | 178° |
| 2026-04-21 21:15 | 43.34029 | -123.04591 | 14687 ft | 302 kts | 178° |
| 2026-04-21 21:16 | 43.31928 | -123.04499 | 14297 ft | 302 kts | 178° |
| 2026-04-21 21:16 | 43.29835 | -123.04410 | 13904 ft | 300 kts | 178° |
| 2026-04-21 21:16 | 43.27768 | -123.04319 | 13651 ft | 294 kts | 178° |
| 2026-04-21 21:16 | 43.25712 | -123.04227 | 13350 ft | 289 kts | 178° |
| 2026-04-21 21:17 | 43.23737 | -123.04139 | 13030 ft | 286 kts | 178° |
| 2026-04-21 21:17 | 43.21756 | -123.04054 | 12704 ft | 283 kts | 178° |
| 2026-04-21 21:17 | 43.19800 | -123.03968 | 12393 ft | 280 kts | 178° |
| 2026-04-21 21:17 | 43.17863 | -123.03883 | 12073 ft | 277 kts | 178° |
| 2026-04-21 21:18 | 43.15947 | -123.03800 | 11775 ft | 273 kts | 178° |
| 2026-04-21 21:18 | 43.14059 | -123.03721 | 11542 ft | 270 kts | 179° |
| 2026-04-21 21:18 | 43.12184 | -123.03641 | 11318 ft | 269 kts | 179° |
| 2026-04-21 21:18 | 43.10317 | -123.03560 | 11087 ft | 268 kts | 178° |
| 2026-04-21 21:19 | 43.08563 | -123.03485 | 10864 ft | 268 kts | 178° |
| 2026-04-21 21:19 | 43.06701 | -123.03404 | 10641 ft | 268 kts | 178° |
| 2026-04-21 21:19 | 43.04842 | -123.03323 | 10417 ft | 267 kts | 178° |
| 2026-04-21 21:19 | 43.02988 | -123.03244 | 10194 ft | 266 kts | 179° |
| 2026-04-21 21:20 | 43.01135 | -123.03168 | 9970 ft | 266 kts | 179° |
| 2026-04-21 21:20 | 42.99290 | -123.03093 | 9744 ft | 265 kts | 179° |
| 2026-04-21 21:20 | 42.97443 | -123.03015 | 9499 ft | 264 kts | 179° |
| 2026-04-21 21:20 | 42.95602 | -123.02934 | 9280 ft | 264 kts | 179° |
| 2026-04-21 21:21 | 42.93767 | -123.02852 | 9040 ft | 263 kts | 179° |
| 2026-04-21 21:21 | 42.91941 | -123.02770 | 8794 ft | 263 kts | 179° |
| 2026-04-21 21:21 | 42.90111 | -123.02691 | 8556 ft | 262 kts | 179° |
| 2026-04-21 21:21 | 42.88292 | -123.02614 | 8326 ft | 260 kts | 179° |
| 2026-04-21 21:22 | 42.86487 | -123.02541 | 8092 ft | 259 kts | 179° |
| 2026-04-21 21:22 | 42.84691 | -123.02467 | 7860 ft | 258 kts | 179° |
| 2026-04-21 21:22 | 42.82899 | -123.02389 | 7624 ft | 258 kts | 179° |
| 2026-04-21 21:22 | 42.81104 | -123.02309 | 7389 ft | 259 kts | 179° |
| 2026-04-21 21:23 | 42.79309 | -123.02231 | 7167 ft | 255 kts | 179° |
| 2026-04-21 21:23 | 42.77565 | -123.02158 | 6957 ft | 246 kts | 179° |
| 2026-04-21 21:23 | 42.75877 | -123.02087 | 6746 ft | 241 kts | 180° |
| 2026-04-21 21:23 | 42.74218 | -123.02016 | 6554 ft | 242 kts | 180° |
| 2026-04-21 21:24 | 42.72535 | -123.01945 | 6375 ft | 243 kts | 180° |
| 2026-04-21 21:24 | 42.70842 | -123.01874 | 6158 ft | 243 kts | 179° |
| 2026-04-21 21:24 | 42.69149 | -123.01801 | 5958 ft | 243 kts | 180° |
| 2026-04-21 21:24 | 42.67461 | -123.01732 | 5742 ft | 243 kts | 180° |
| 2026-04-21 21:25 | 42.65776 | -123.01663 | 5575 ft | 242 kts | 180° |
| 2026-04-21 21:25 | 42.64129 | -123.01332 | 5417 ft | 238 kts | 164° |
| 2026-04-21 21:25 | 42.62591 | -123.00541 | 5257 ft | 234 kts | 158° |
| 2026-04-21 21:25 | 42.61074 | -122.99735 | 5106 ft | 234 kts | 160° |
| 2026-04-21 21:26 | 42.59556 | -122.98938 | 4960 ft | 233 kts | 160° |
| 2026-04-21 21:26 | 42.58049 | -122.98144 | 4804 ft | 230 kts | 159° |
| 2026-04-21 21:26 | 42.56579 | -122.97368 | 4684 ft | 226 kts | 160° |
| 2026-04-21 21:26 | 42.55118 | -122.96597 | 4595 ft | 225 kts | 159° |
| 2026-04-21 21:27 | 42.53666 | -122.95831 | 4494 ft | 222 kts | 159° |
| 2026-04-21 21:27 | 42.52238 | -122.95079 | 4232 ft | 218 kts | 159° |
| 2026-04-21 21:27 | 42.50839 | -122.94341 | 3985 ft | 214 kts | 160° |
| 2026-04-21 21:27 | 42.49457 | -122.93613 | 3666 ft | 211 kts | 160° |
| 2026-04-21 21:28 | 42.48380 | -122.93047 | 3444 ft | 205 kts | 160° |
| 2026-04-21 21:28 | 42.47094 | -122.92372 | 3180 ft | 191 kts | 159° |
| 2026-04-21 21:28 | 42.44965 | -122.91249 | 2743 ft | 157 kts | 160° |
| 2026-04-21 21:29 | 42.43975 | -122.90730 | 2525 ft | 150 kts | 160° |
| 2026-04-21 21:29 | 42.43018 | -122.90227 | 2313 ft | 146 kts | 161° |
| 2026-04-21 21:29 | 42.42081 | -122.89735 | 2100 ft | 144 kts | 160° |
| 2026-04-21 21:29 | 42.41158 | -122.89251 | 1891 ft | 142 kts | 162° |
| 2026-04-21 21:30 | 42.40231 | -122.88764 | 1701 ft | 143 kts | 162° |
| 2026-04-21 21:30 | 42.39313 | -122.88289 | 1474 ft | 141 kts | 161° |
| 2026-04-21 21:30 | 42.38406 | -122.87804 | 1316 ft | 138 kts | 161° |
| 2026-04-21 21:30 | 42.37613 | -122.87398 | 1314 ft | 100 kts | 160° |
| 2026-04-21 21:31 | 42.37171 | -122.87170 | 1325 ft | 59 kts | 160° |
| 2026-04-21 21:31 | 42.36841 | -122.86996 | 1327 ft | 49 kts | 156° |
| 2026-04-21 21:31 | 42.36707 | -122.87010 | 1331 ft | 9 kts | 257° |
| 2026-04-21 21:31 | 42.36727 | -122.87081 | 1329 ft | 8 kts | 320° |
| 2026-04-21 21:32 | 42.36775 | -122.87112 | 1328 ft | 7 kts | 339° |
| 2026-04-21 21:32 | 42.36813 | -122.87132 | 1331 ft | 9 kts | 339° |
| 2026-04-21 21:32 | 42.36863 | -122.87159 | 1329 ft | 13 kts | 338° |
| 2026-04-21 21:32 | 42.36931 | -122.87221 | 1326 ft | 12 kts | 291° |
| 2026-04-21 21:33 | 42.36925 | -122.87316 | 1328 ft | 7 kts | 249° |
| 2026-04-21 21:33 | 42.36920 | -122.87332 | 1325 ft | 0 kts | 247° |
| 2026-04-21 21:33 | 42.36917 | -122.87341 | 1325 ft | 2 kts | 248° |
| 2026-04-21 21:33 | 42.36911 | -122.87361 | 1329 ft | 1 kts | 248° |
| 2026-04-21 21:34 | 42.36909 | -122.87368 | 1327 ft | 0 kts | 248° |